Time;durP1;ratioP1;P1;durP2;ratioP2;P2;SDS_P1;SDS_P2;PMS_P1;PMS_P2;Temp;Humidity;BMP_temperature;BMP_pressure;BME280_temperature;BME280_humidity;BME280_pressure;Samples;Min_cycle;Max_cycle;Signal;HPM_P1;HPM_P2
2021/01/22 00:02:30;;;;;;;;;;;;;;;0.06;85.98;100288.84;1742692;80;22422;-73
2021/01/22 00:04:57;;;;;;;;;;;;;;;0.06;85.97;100282.34;1742201;80;20240;-73
2021/01/22 00:07:25;;;;;;;;;;;;;;;0.07;85.99;100281.44;1735419;81;20294;-74
2021/01/22 00:09:52;;;;;;;;;;;;;;;0.08;85.99;100280.53;1735700;80;20542;-74
2021/01/22 00:12:20;;;;;;;;;;;;;;;0.08;86.00;100278.78;1750644;80;20222;-74
2021/01/22 00:14:48;;;;;;;;;;;;;;;0.07;85.99;100273.19;1743048;81;21983;-73
2021/01/22 00:17:17;;;;;;;;;;;;;;;0.07;86.00;100274.49;1728939;81;20210;-73
2021/01/22 00:19:44;;;;;;;;;;;;;;;0.07;85.98;100272.35;1744749;82;20273;-73
2021/01/22 00:22:15;;;;;;;;;;;;;;;0.07;85.98;100271.05;1732395;81;20552;-73
2021/01/22 00:24:42;;;;;;;;;;;;;;;0.08;86.01;100276.64;1725554;81;20236;-73
2021/01/22 00:27:09;;;;;;;;;;;;;;;0.07;86.01;100262.81;1745867;81;22094;-74
2021/01/22 00:29:38;;;;;;;;;;;;;;;0.07;86.02;100273.19;1741396;82;20404;-73
2021/01/22 00:32:05;;;;;;;;;;;;;;;0.09;86.05;100265.34;1741898;81;20501;-73
2021/01/22 00:34:33;;;;;;;;;;;;;;;0.10;86.04;100254.92;1740223;81;20481;-74
2021/01/22 00:37:02;;;;;;;;;;;;;;;0.11;86.07;100261.80;1746093;80;20276;-75
2021/01/22 00:39:30;;;;;;;;;;;;;;;0.11;86.06;100259.66;1754555;79;22091;-75
2021/01/22 00:41:58;;;;;;;;;;;;;;;0.11;86.04;100266.16;1740256;80;20397;-73
2021/01/22 00:44:25;;;;;;;;;;;;;;;0.11;86.07;100257.06;1719145;81;20220;-75
2021/01/22 00:46:52;;;;;;;;;;;;;;;0.10;86.08;100250.18;1736612;82;20774;-75
2021/01/22 00:49:20;;;;;;;;;;;;;;;0.10;86.06;100246.28;1745229;82;20265;-74
2021/01/22 00:51:47;;;;;;;;;;;;;;;0.10;86.04;100250.18;1745912;81;23064;-75
2021/01/22 00:54:15;;;;;;;;;;;;;;;0.08;86.04;100248.91;1706486;83;20506;-76
2021/01/22 00:56:59;;;;;;;;;;;;;;;0.08;86.03;100255.86;1738627;79;20225;-73
2021/01/22 00:59:27;;;;;;;;;;;;;;;0.07;86.04;100252.42;1740132;81;20596;-75
2021/01/22 01:01:55;;;;;;;;;;;;;;;0.07;86.05;100239.44;1739655;82;20229;-73
2021/01/22 01:04:22;;;;;;;;;;;;;;;0.07;86.04;100244.63;1734243;81;21898;-75
2021/01/22 01:06:57;;;;;;;;;;;;;;;0.07;86.04;100234.70;1746855;80;20241;-75
2021/01/22 01:09:25;;;;;;;;;;;;;;;0.06;86.05;100229.11;1745368;82;20218;-75
2021/01/22 01:11:57;;;;;;;;;;;;;;;0.05;86.05;100228.73;1733300;82;20601;-76
2021/01/22 01:14:27;;;;;;;;;;;;;;;0.04;86.05;100235.67;1731030;81;20432;-74
2021/01/22 01:16:55;;;;;;;;;;;;;;;0.03;86.05;100226.64;1720881;81;21911;-73
2021/01/22 01:19:23;;;;;;;;;;;;;;;0.03;86.08;100220.16;1722030;82;21150;-73
2021/01/22 01:21:51;;;;;;;;;;;;;;;0.02;86.13;100218.47;1723031;82;20224;-72
2021/01/22 01:24:18;;;;;;;;;;;;;;;0.01;86.14;100219.38;1735028;81;20721;-74
2021/01/22 01:26:46;;;;;;;;;;;;;;;-0.01;86.17;100221.55;1745090;81;20212;-74
2021/01/22 01:29:14;;;;;;;;;;;;;;;-0.02;86.19;100222.45;1718965;82;21906;-75
2021/01/22 01:31:42;;;;;;;;;;;;;;;-0.04;86.23;100217.78;1737687;80;20334;-75
2021/01/22 01:34:10;;;;;;;;;;;;;;;-0.06;86.21;100207.91;1734524;82;20557;-75
2021/01/22 01:36:39;;;;;;;;;;;;;;;-0.08;86.25;100204.99;1744222;81;20674;-76
2021/01/22 01:39:06;;;;;;;;;;;;;;;-0.10;86.28;100211.52;1754298;81;20224;-75
2021/01/22 01:41:35;;;;;;;;;;;;;;;-0.11;86.31;100215.47;1745287;81;22046;-75
2021/01/22 01:44:02;;;;;;;;;;;;;;;-0.12;86.34;100203.40;1730135;81;20367;-75
2021/01/22 01:46:30;;;;;;;;;;;;;;;-0.13;86.34;100202.55;1716248;81;20291;-74
2021/01/22 01:48:59;;;;;;;;;;;;;;;-0.16;86.36;100197.49;1735483;81;20774;-76
2021/01/22 01:51:27;;;;;;;;;;;;;;;-0.16;86.38;100201.38;1705016;81;20313;-75
2021/01/22 01:53:55;;;;;;;;;;;;;;;-0.17;86.39;100191.91;1701480;82;22003;-74
2021/01/22 01:56:23;;;;;;;;;;;;;;;-0.18;86.38;100197.16;1753677;81;20370;-75
2021/01/22 01:58:51;;;;;;;;;;;;;;;-0.19;86.41;100192.42;1747729;81;20218;-75
2021/01/22 02:01:18;;;;;;;;;;;;;;;-0.21;86.44;100194.20;1711548;82;20724;-75
2021/01/22 02:03:49;;;;;;;;;;;;;;;-0.21;86.45;100195.50;1736527;81;20473;-75
2021/01/22 02:06:18;;;;;;;;;;;;;;;-0.21;86.47;100202.00;1733511;81;22103;-75
2021/01/22 02:08:46;;;;;;;;;;;;;;;-0.23;86.49;100201.22;1747739;81;20819;-74
2021/01/22 02:11:14;;;;;;;;;;;;;;;-0.22;86.50;100196.87;1731137;81;20194;-75
2021/01/22 02:13:41;;;;;;;;;;;;;;;-0.23;86.51;100199.08;1716615;82;20608;-74
2021/01/22 02:16:10;;;;;;;;;;;;;;;-0.25;86.52;100191.34;1741837;81;20448;-74
2021/01/22 02:18:40;;;;;;;;;;;;;;;-0.26;86.55;100190.95;1739456;81;21914;-75
2021/01/22 02:21:28;;;;;;;;;;;;;;;-0.26;86.58;100201.80;1733689;82;22523;-74
2021/01/22 02:24:03;;;;;;;;;;;;;;;-0.28;86.61;100199.27;1729415;81;20320;-74
2021/01/22 02:26:34;;;;;;;;;;;;;;;-0.29;86.58;100194.95;1708436;82;20773;-74
2021/01/22 02:29:04;;;;;;;;;;;;;;;-0.32;86.63;100188.13;1728798;82;20223;-75
2021/01/22 02:31:35;;;;;;;;;;;;;;;-0.34;86.67;100187.34;1744207;81;40044;-74
2021/01/22 02:34:06;;;;;;;;;;;;;;;-0.36;86.68;100187.87;1749963;81;20659;-73
2021/01/22 02:36:35;;;;;;;;;;;;;;;-0.37;86.68;100180.98;1729752;81;20237;-73
2021/01/22 02:39:04;;;;;;;;;;;;;;;-0.38;86.70;100177.16;1717248;82;20701;-74
2021/01/22 02:41:33;;;;;;;;;;;;;;;-0.40;86.73;100180.23;1732335;82;20454;-73
2021/01/22 02:44:03;;;;;;;;;;;;;;;-0.40;86.74;100173.75;1717622;82;21860;-73
2021/01/22 02:46:31;;;;;;;;;;;;;;;-0.42;86.76;100181.59;1718581;82;20450;-72
2021/01/22 02:48:59;;;;;;;;;;;;;;;-0.42;86.80;100182.05;1721884;81;20439;-72
2021/01/22 02:51:27;;;;;;;;;;;;;;;-0.41;86.85;100182.44;1744192;82;21675;-70
2021/01/22 02:53:54;;;;;;;;;;;;;;;-0.41;86.88;100176.80;1747804;82;20226;-71
2021/01/22 02:56:42;;;;;;;;;;;;;;;-0.42;86.85;100171.67;1744880;82;23244;-71
2021/01/22 02:59:35;;;;;;;;;;;;;;;-0.45;86.86;100170.05;1745467;81;20284;-71
2021/01/22 03:02:15;;;;;;;;;;;;;;;-0.45;86.87;100178.28;1730939;81;20239;-70
2021/01/22 03:04:43;;;;;;;;;;;;;;;-0.47;86.88;100178.80;1740402;80;20773;-71
2021/01/22 03:07:13;;;;;;;;;;;;;;;-0.49;86.90;100179.28;1738691;80;20293;-71
2021/01/22 03:09:43;;;;;;;;;;;;;;;-0.51;86.88;100176.75;1723170;80;22958;-71
2021/01/22 03:12:11;;;;;;;;;;;;;;;-0.50;86.88;100176.30;1726025;82;20368;-71
2021/01/22 03:14:39;;;;;;;;;;;;;;;-0.52;86.89;100188.48;1747086;81;20436;-73
2021/01/22 03:17:08;;;;;;;;;;;;;;;-0.52;86.88;100178.11;1739164;81;20712;-72
2021/01/22 03:19:45;;;;;;;;;;;;;;;-0.54;86.89;100179.47;1722335;82;20452;-72
2021/01/22 03:22:13;;;;;;;;;;;;;;;-0.55;86.89;100173.05;1745515;82;21910;-72
2021/01/22 03:24:41;;;;;;;;;;;;;;;-0.58;86.90;100175.27;1736343;82;20365;-72
2021/01/22 03:27:09;;;;;;;;;;;;;;;-0.57;86.90;100178.75;1730873;82;20218;-72
2021/01/22 03:29:36;;;;;;;;;;;;;;;-0.60;86.91;100171.45;1729042;82;20542;-72
2021/01/22 03:32:04;;;;;;;;;;;;;;;-0.61;86.91;100176.24;1752522;81;20245;-72
2021/01/22 03:34:32;;;;;;;;;;;;;;;-0.64;86.91;100177.66;1755179;81;21930;-72
2021/01/22 03:37:00;;;;;;;;;;;;;;;-0.65;86.94;100174.67;1723843;81;20219;-72
2021/01/22 03:39:28;;;;;;;;;;;;;;;-0.66;86.93;100172.98;1720423;82;20229;-73
2021/01/22 03:41:55;;;;;;;;;;;;;;;-0.65;86.96;100173.83;1746879;82;20783;-72
2021/01/22 03:44:23;;;;;;;;;;;;;;;-0.67;86.97;100167.41;1742888;81;20230;-72
2021/01/22 03:46:50;;;;;;;;;;;;;;;-0.67;86.98;100168.70;1737695;82;21988;-71
2021/01/22 03:49:18;;;;;;;;;;;;;;;-0.68;86.96;100170.88;1720536;82;20248;-71
2021/01/22 03:51:46;;;;;;;;;;;;;;;-0.70;86.99;100177.03;1713817;82;20216;-72
2021/01/22 03:54:16;;;;;;;;;;;;;;;-0.73;87.02;100183.18;1739657;82;20680;-72
2021/01/22 03:56:46;;;;;;;;;;;;;;;-0.75;87.04;100183.69;1731445;81;20225;-72
2021/01/22 03:59:13;;;;;;;;;;;;;;;-0.76;87.05;100178.56;1740665;81;21846;-72
2021/01/22 04:01:41;;;;;;;;;;;;;;;-0.77;87.04;100177.72;1708401;82;20260;-72
2021/01/22 04:04:08;;;;;;;;;;;;;;;-0.76;87.09;100173.38;1723635;83;20219;-72
2021/01/22 04:06:37;;;;;;;;;;;;;;;-0.76;87.10;100180.71;1709403;83;20721;-72
2021/01/22 04:09:05;;;;;;;;;;;;;;;-0.78;87.13;100189.42;1694822;82;20650;-72
2021/01/22 04:11:32;;;;;;;;;;;;;;;-0.79;87.17;100182.55;1705852;84;22079;-72
2021/01/22 04:14:01;;;;;;;;;;;;;;;-0.81;87.20;100178.72;1681491;84;20288;-72
2021/01/22 04:16:29;;;;;;;;;;;;;;;-0.79;87.23;100182.55;1706062;84;20217;-72
2021/01/22 04:18:56;;;;;;;;;;;;;;;-0.80;87.26;100179.11;1691623;83;22834;-72
2021/01/22 04:21:24;;;;;;;;;;;;;;;-0.79;87.25;100180.80;1701136;83;20292;-72
2021/01/22 04:23:52;;;;;;;;;;;;;;;-0.80;87.29;100175.22;1683743;84;21905;-72
2021/01/22 04:26:19;;;;;;;;;;;;;;;-0.80;87.32;100175.67;1687854;83;20371;-72
2021/01/22 04:28:46;;;;;;;;;;;;;;;-0.80;87.33;100164.84;1696360;83;20235;-71
2021/01/22 04:31:16;;;;;;;;;;;;;;;-0.79;87.35;100165.69;1698098;84;20454;-71
2021/01/22 04:33:44;;;;;;;;;;;;;;;-0.80;87.40;100167.44;1686337;84;20223;-70
2021/01/22 04:36:12;;;;;;;;;;;;;;;-0.80;87.41;100164.84;1696615;84;22081;-69
2021/01/22 04:38:39;;;;;;;;;;;;;;;-0.79;87.44;100165.23;1690905;84;22598;-66
2021/01/22 04:41:06;;;;;;;;;;;;;;;-0.78;87.48;100164.78;1684788;84;20922;-67
2021/01/22 04:43:38;;;;;;;;;;;;;;;-0.79;87.47;100166.98;1684214;83;20541;-66
2021/01/22 04:46:03;;;;;;;;;;;;;;;-0.78;87.52;100166.08;1738406;82;20503;-67
2021/01/22 04:48:33;;;;;;;;;;;;;;;-0.79;87.53;100170.42;1726187;82;22065;-67
2021/01/22 04:51:01;;;;;;;;;;;;;;;-0.78;87.55;100174.70;1722202;81;20359;-67
2021/01/22 04:53:29;;;;;;;;;;;;;;;-0.78;87.58;100176.00;1720248;82;20251;-67
2021/01/22 04:55:57;;;;;;;;;;;;;;;-0.78;87.62;100176.45;1730739;82;21416;-69
2021/01/22 04:58:25;;;;;;;;;;;;;;;-0.78;87.63;100173.41;1704974;82;20240;-69
2021/01/22 05:00:52;;;;;;;;;;;;;;;-0.78;87.65;100179.05;1734803;82;22043;-69
2021/01/22 05:03:23;;;;;;;;;;;;;;;-0.77;87.67;100164.76;1713123;83;21329;-69
2021/01/22 05:05:49;;;;;;;;;;;;;;;-0.77;87.70;100169.94;1717518;81;20213;-70
2021/01/22 05:08:18;;;;;;;;;;;;;;;-0.77;87.72;100172.54;1728112;81;20534;-70
2021/01/22 05:10:46;;;;;;;;;;;;;;;-0.78;87.77;100161.73;1735068;81;20220;-70
2021/01/22 05:13:15;;;;;;;;;;;;;;;-0.78;87.75;100155.26;1726325;81;22190;-70
2021/01/22 05:16:04;;;;;;;;;;;;;;;-0.77;87.77;100162.16;1687487;83;20270;-72
2021/01/22 05:18:32;;;;;;;;;;;;;;;-0.77;87.80;100165.17;1728085;82;20206;-67
2021/01/22 05:21:09;;;;;;;;;;;;;;;-0.76;87.82;100159.97;1724178;82;20620;-68
2021/01/22 05:23:40;;;;;;;;;;;;;;;-0.76;87.83;100158.66;1738797;81;20771;-66
2021/01/22 05:26:10;;;;;;;;;;;;;;;-0.75;87.88;100152.58;1746601;80;22045;-71
2021/01/22 05:28:40;;;;;;;;;;;;;;;-0.74;87.87;100159.45;1725946;82;20210;-74
2021/01/22 05:31:09;;;;;;;;;;;;;;;-0.75;87.92;100151.28;1719050;82;20497;-74
2021/01/22 05:33:38;;;;;;;;;;;;;;;-0.73;87.93;100162.44;1738045;81;20502;-72
2021/01/22 05:36:25;;;;;;;;;;;;;;;-0.73;87.95;100155.11;1713158;82;20407;-73
2021/01/22 05:38:53;;;;;;;;;;;;;;;-0.73;87.95;100157.25;1731149;82;22933;-71
2021/01/22 05:41:21;;;;;;;;;;;;;;;-0.72;87.97;100161.53;1714084;82;20441;-72
2021/01/22 05:43:50;;;;;;;;;;;;;;;-0.71;87.98;100164.97;1725133;81;20197;-75
2021/01/22 05:46:21;;;;;;;;;;;;;;;-0.72;87.99;100160.23;1725161;80;20625;-70
2021/01/22 05:49:13;;;;;;;;;;;;;;;-0.71;88.00;100160.62;1733111;81;21022;-74
2021/01/22 05:51:42;;;;;;;;;;;;;;;-0.70;88.01;100161.02;1738328;82;22073;-73
2021/01/22 05:54:10;;;;;;;;;;;;;;;-0.70;88.03;100149.34;1734206;81;20300;-78
2021/01/22 05:56:38;;;;;;;;;;;;;;;-0.69;88.03;100149.73;1705993;82;20225;-78
2021/01/22 05:59:14;;;;;;;;;;;;;;;-0.69;88.04;100147.59;1689375;83;20489;-69
2021/01/22 06:01:42;;;;;;;;;;;;;;;-0.70;88.04;100148.50;1724285;81;20208;-82
2021/01/22 06:04:10;;;;;;;;;;;;;;;-0.70;88.05;100145.91;1720058;81;22065;-79
2021/01/22 06:06:37;;;;;;;;;;;;;;;-0.71;88.06;100152.00;1722901;81;22595;-75
2021/01/22 06:09:07;;;;;;;;;;;;;;;-0.71;88.08;100146.81;1722062;82;20223;-75
2021/01/22 06:11:36;;;;;;;;;;;;;;;-0.71;88.09;100153.30;1724137;83;20509;-73
2021/01/22 06:14:06;;;;;;;;;;;;;;;-0.71;88.10;100147.66;1692298;83;20215;-72
2021/01/22 06:16:35;;;;;;;;;;;;;;;-0.70;88.10;100147.20;1708526;82;22888;-71
2021/01/22 06:19:06;;;;;;;;;;;;;;;-0.70;88.11;100144.16;1700149;82;20370;-73
2021/01/22 06:21:41;;;;;;;;;;;;;;;-0.70;88.13;100136.38;1697099;84;20241;-71
2021/01/22 06:24:08;;;;;;;;;;;;;;;-0.71;88.12;100135.14;1684167;82;20539;-72
2021/01/22 06:26:39;;;;;;;;;;;;;;;-0.71;88.15;100130.80;1708401;82;20502;-71
2021/01/22 06:29:08;;;;;;;;;;;;;;;-0.70;88.15;100138.13;1704397;83;21280;-70
2021/01/22 06:31:37;;;;;;;;;;;;;;;-0.70;88.15;100136.83;1686631;82;20380;-72
2021/01/22 06:34:05;;;;;;;;;;;;;;;-0.70;88.18;100130.34;1683359;82;20286;-69
2021/01/22 06:36:32;;;;;;;;;;;;;;;-0.69;88.17;100138.52;1702381;82;21451;-71
2021/01/22 06:39:00;;;;;;;;;;;;;;;-0.69;88.19;100138.06;1694860;82;20196;-72
2021/01/22 06:41:28;;;;;;;;;;;;;;;-0.68;88.19;100151.88;1686985;82;21911;-72
2021/01/22 06:43:59;;;;;;;;;;;;;;;-0.68;88.17;100147.53;1680941;85;20375;-72
2021/01/22 06:46:27;;;;;;;;;;;;;;;-0.67;88.20;100145.36;1652228;85;20265;-71
2021/01/22 06:48:57;;;;;;;;;;;;;;;-0.67;88.19;100139.33;1702134;82;20528;-71
2021/01/22 06:51:27;;;;;;;;;;;;;;;-0.68;88.21;100137.16;1707968;82;20246;-71
2021/01/22 06:54:09;;;;;;;;;;;;;;;-0.66;88.22;100139.72;1722794;81;22128;-72
2021/01/22 06:56:39;;;;;;;;;;;;;;;-0.66;88.23;100134.08;1721979;81;20892;-72
2021/01/22 06:59:16;;;;;;;;;;;;;;;-0.66;88.23;100137.97;1713799;82;20213;-69
2021/01/22 07:01:44;;;;;;;;;;;;;;;-0.66;88.23;100135.83;1689042;84;20696;-72
2021/01/22 07:04:37;;;;;;;;;;;;;;;-0.65;88.25;100145.30;1698013;81;20271;-69
2021/01/22 07:07:07;;;;;;;;;;;;;;;-0.65;88.24;100137.06;1707920;81;20439;-71
2021/01/22 07:09:47;;;;;;;;;;;;;;;-0.64;88.25;100138.75;1721314;81;20361;-72
2021/01/22 07:12:16;;;;;;;;;;;;;;;-0.60;88.27;100145.50;1710326;81;20505;-72
2021/01/22 07:14:44;;;;;;;;;;;;;;;-0.59;88.27;100145.90;1699340;81;20743;-72
2021/01/22 07:17:29;;;;;;;;;;;;;;;-0.58;88.27;100145.44;1707612;82;20231;-76
2021/01/22 07:20:07;;;;;;;;;;;;;;;-0.56;88.27;100144.11;1700899;83;22092;-74
2021/01/22 07:22:35;;;;;;;;;;;;;;;-0.54;88.27;100137.12;1683714;84;21399;-73
2021/01/22 07:25:05;;;;;;;;;;;;;;;-0.53;88.26;100143.98;1663697;84;20229;-74
2021/01/22 07:27:44;;;;;;;;;;;;;;;-0.53;88.25;100138.35;1706165;84;21574;-72
2021/01/22 07:30:16;;;;;;;;;;;;;;;-0.53;88.24;100138.80;1687772;82;20274;-72
2021/01/22 07:32:44;;;;;;;;;;;;;;;-0.53;88.25;100137.51;1687400;82;22069;-73
2021/01/22 07:35:22;;;;;;;;;;;;;;;-0.54;88.23;100139.70;1702386;84;20794;-75
2021/01/22 07:37:50;;;;;;;;;;;;;;;-0.54;88.22;100137.95;1682285;84;20231;-73
2021/01/22 07:40:18;;;;;;;;;;;;;;;-0.52;88.21;100137.44;1678059;85;21596;-72
2021/01/22 07:42:46;;;;;;;;;;;;;;;-0.52;88.21;100140.49;1692515;83;20218;-75
2021/01/22 07:45:15;;;;;;;;;;;;;;;-0.52;88.19;100140.04;1713558;82;21828;-77
2021/01/22 07:47:45;;;;;;;;;;;;;;;-0.52;88.17;100137.89;1703468;81;20275;-75
2021/01/22 07:50:19;;;;;;;;;;;;;;;-0.52;88.18;100138.74;1699344;81;20237;-78
2021/01/22 07:52:47;;;;;;;;;;;;;;;-0.52;88.14;100133.55;1701256;81;21450;-78
2021/01/22 07:55:16;;;;;;;;;;;;;;;-0.51;88.14;100136.99;1706913;81;20228;-81
2021/01/22 07:57:45;;;;;;;;;;;;;;;-0.53;88.10;100126.67;1708086;81;22095;-80
2021/01/22 08:00:15;;;;;;;;;;;;;;;-0.54;88.08;100135.81;1695468;83;20352;-79
2021/01/22 08:02:57;;;;;;;;;;;;;;;-0.56;88.06;100143.66;1711033;81;20231;-82
2021/01/22 08:05:34;;;;;;;;;;;;;;;-0.54;88.06;100144.90;1722484;81;20733;-81
2021/01/22 08:08:17;;;;;;;;;;;;;;;-0.54;88.03;100143.15;1705620;81;20225;-81
2021/01/22 08:10:45;;;;;;;;;;;;;;;-0.53;88.03;100155.66;1695602;84;22115;-79
2021/01/22 08:13:15;;;;;;;;;;;;;;;-0.52;88.02;100157.36;1711229;82;20234;-78
2021/01/22 08:15:44;;;;;;;;;;;;;;;-0.50;88.02;100153.79;1690289;82;20240;-79
2021/01/22 08:18:13;;;;;;;;;;;;;;;-0.48;88.01;100148.54;1696770;83;20537;-80
2021/01/22 08:20:51;;;;;;;;;;;;;;;-0.46;87.97;100150.65;1706612;83;20202;-87
2021/01/22 08:23:21;;;;;;;;;;;;;;;-0.46;87.95;100150.65;1701693;81;21913;-84
2021/01/22 08:25:49;;;;;;;;;;;;;;;-0.44;87.95;100150.13;1725708;83;20372;-84
2021/01/22 08:28:17;;;;;;;;;;;;;;;-0.43;87.93;100150.52;1721588;81;20227;-88
2021/01/22 08:30:44;;;;;;;;;;;;;;;-0.43;87.91;100147.47;1706555;82;20923;-73
2021/01/22 08:33:12;;;;;;;;;;;;;;;-0.42;87.89;100147.86;1656097;84;20232;-71
2021/01/22 08:35:40;;;;;;;;;;;;;;;-0.39;87.87;100149.48;1735148;82;21909;-69
2021/01/22 08:38:07;;;;;;;;;;;;;;;-0.39;87.83;100141.25;1718564;81;20370;-72
2021/01/22 08:40:43;;;;;;;;;;;;;;;-0.36;87.84;100147.64;1738105;82;20277;-75
2021/01/22 08:43:14;;;;;;;;;;;;;;;-0.33;87.80;100147.97;1744017;81;20994;-73
2021/01/22 08:45:42;;;;;;;;;;;;;;;-0.31;87.79;100147.45;1756945;80;20373;-73
2021/01/22 08:48:10;;;;;;;;;;;;;;;-0.31;87.77;100148.75;1745913;81;22077;-73
2021/01/22 08:50:39;;;;;;;;;;;;;;;-0.29;87.75;100139.15;1714828;81;20391;-73
2021/01/22 08:53:11;;;;;;;;;;;;;;;-0.30;87.70;100131.82;1715210;81;20267;-71
2021/01/22 08:55:42;;;;;;;;;;;;;;;-0.28;87.68;100140.03;1736395;81;21490;-74
2021/01/22 08:58:11;;;;;;;;;;;;;;;-0.30;87.62;100137.01;1741412;82;20230;-72
2021/01/22 09:00:39;;;;;;;;;;;;;;;-0.30;87.61;100125.78;1725424;81;22935;-75
2021/01/22 09:03:23;;;;;;;;;;;;;;;-0.28;87.57;100123.16;1712745;83;20363;-77
2021/01/22 09:05:53;;;;;;;;;;;;;;;-0.28;87.55;100123.16;1713406;82;20256;-79
2021/01/22 09:08:22;;;;;;;;;;;;;;;-0.27;87.49;100125.69;1733610;81;20534;-75
2021/01/22 09:10:51;;;;;;;;;;;;;;;-0.28;87.44;100121.41;1726487;81;20298;-75
2021/01/22 09:13:27;;;;;;;;;;;;;;;-0.28;87.40;100116.67;1736857;81;22110;-78
2021/01/22 09:16:06;;;;;;;;;;;;;;;-0.29;87.34;100117.09;1720123;81;20442;-76
2021/01/22 09:18:33;;;;;;;;;;;;;;;-0.29;87.33;100113.20;1715632;82;20222;-72
2021/01/22 09:24:55;;;;;;;;;;;;;;;-0.24;87.26;100113.03;1744642;81;20202;-76
2021/01/22 09:28:08;;;;;;;;;;;;;;;-0.18;87.24;100114.95;1732942;81;20235;-76
2021/01/22 09:30:35;;;;;;;;;;;;;;;-0.14;87.18;100109.17;1722469;81;20384;-72
2021/01/22 09:33:03;;;;;;;;;;;;;;;-0.13;87.16;100111.70;1731932;81;20268;-76
2021/01/22 09:35:30;;;;;;;;;;;;;;;-0.08;87.12;100112.83;1724121;81;20631;-72
2021/01/22 09:37:58;;;;;;;;;;;;;;;-0.08;87.09;100107.19;1724673;81;20278;-75
2021/01/22 09:40:25;;;;;;;;;;;;;;;-0.06;87.02;100103.22;1738351;81;22772;-76
2021/01/22 09:42:52;;;;;;;;;;;;;;;-0.05;86.97;100108.80;1735838;81;20373;-75
2021/01/22 09:45:20;;;;;;;;;;;;;;;-0.05;86.92;100095.38;1715516;81;20312;-85
2021/01/22 09:47:48;;;;;;;;;;;;;;;-0.05;86.87;100094.53;1714950;81;20768;-78
2021/01/22 09:50:18;;;;;;;;;;;;;;;-0.04;86.83;100102.70;1719311;81;20287;-75
2021/01/22 09:52:46;;;;;;;;;;;;;;;-0.05;86.75;100088.88;1731779;81;22084;-71
2021/01/22 09:55:15;;;;;;;;;;;;;;;-0.05;86.73;100082.39;1734600;81;20273;-71
2021/01/22 09:57:43;;;;;;;;;;;;;;;-0.03;86.66;100077.13;1725567;81;20249;-71
2021/01/22 10:00:14;;;;;;;;;;;;;;;-0.01;86.64;100076.16;1717394;81;20725;-71
2021/01/22 10:02:42;;;;;;;;;;;;;;;0.02;86.57;100076.95;1711236;81;20283;-74
2021/01/22 10:05:10;;;;;;;;;;;;;;;0.03;86.51;100073.00;1717339;81;22099;-73
2021/01/22 10:07:39;;;;;;;;;;;;;;;0.07;86.45;100072.41;1722509;81;21376;-72
2021/01/22 10:10:08;;;;;;;;;;;;;;;0.10;86.41;100071.00;1731406;81;20277;-73
2021/01/22 10:12:39;;;;;;;;;;;;;;;0.15;86.40;100072.94;1734070;81;20672;-76
2021/01/22 10:15:13;;;;;;;;;;;;;;;0.17;86.31;100065.47;1723433;81;20573;-70
2021/01/22 10:17:41;;;;;;;;;;;;;;;0.19;86.29;100063.67;1730010;81;21893;-71
2021/01/22 10:20:12;;;;;;;;;;;;;;;0.24;86.25;100068.20;1714252;81;20240;-72
2021/01/22 10:22:39;;;;;;;;;;;;;;;0.27;86.20;100072.42;1714827;81;20248;-69
2021/01/22 10:25:07;;;;;;;;;;;;;;;0.28;86.07;100063.26;1729485;81;21471;-71
2021/01/22 10:27:34;;;;;;;;;;;;;;;0.30;86.02;100056.73;1726102;81;20271;-71
2021/01/22 10:30:04;;;;;;;;;;;;;;;0.32;85.95;100052.30;1715567;81;21908;-71
2021/01/22 10:32:31;;;;;;;;;;;;;;;0.33;85.88;100056.59;1708267;84;20291;-70
2021/01/22 10:34:59;;;;;;;;;;;;;;;0.33;85.78;100055.29;1711602;81;20270;-71
2021/01/22 10:37:28;;;;;;;;;;;;;;;0.32;85.66;100049.70;1738505;81;20397;-69
2021/01/22 10:39:55;;;;;;;;;;;;;;;0.30;85.55;100060.63;1728364;81;20216;-70
2021/01/22 10:42:23;;;;;;;;;;;;;;;0.30;85.44;100053.28;1724848;81;22143;-69
2021/01/22 10:44:50;;;;;;;;;;;;;;;0.28;85.38;100047.67;1733504;81;20400;-69
2021/01/22 10:47:18;;;;;;;;;;;;;;;0.30;85.31;100039.84;1733813;81;20230;-72
2021/01/22 10:49:47;;;;;;;;;;;;;;;0.34;85.30;100032.30;1737219;81;20530;-72
2021/01/22 10:52:14;;;;;;;;;;;;;;;0.36;85.26;100034.36;1730361;81;20222;-74
2021/01/22 10:54:42;;;;;;;;;;;;;;;0.40;85.25;100030.74;1736883;81;21373;-74
2021/01/22 10:57:09;;;;;;;;;;;;;;;0.42;85.20;100035.41;1724393;81;20285;-74
2021/01/22 10:59:37;;;;;;;;;;;;;;;0.43;85.15;100029.76;1717871;81;20258;-71
2021/01/22 11:02:07;;;;;;;;;;;;;;;0.43;85.09;100028.00;1727233;81;20536;-73
2021/01/22 11:04:35;;;;;;;;;;;;;;;0.42;85.02;100026.31;1729530;81;20221;-74
2021/01/22 11:07:04;;;;;;;;;;;;;;;0.41;84.95;100028.98;1726344;81;21898;-75
2021/01/22 11:09:33;;;;;;;;;;;;;;;0.39;84.88;100022.56;1728666;81;20395;-74
2021/01/22 11:12:07;;;;;;;;;;;;;;;0.37;84.83;100020.46;1728862;81;20437;-74
2021/01/22 11:14:35;;;;;;;;;;;;;;;0.37;84.80;100019.16;1734983;81;20704;-74
2021/01/22 11:17:02;;;;;;;;;;;;;;;0.40;84.81;100017.75;1707419;81;20444;-75
2021/01/22 11:19:31;;;;;;;;;;;;;;;0.43;84.80;100021.51;1707348;81;21913;-73
2021/01/22 11:21:59;;;;;;;;;;;;;;;0.45;84.74;100017.08;1736693;81;20477;-73
2021/01/22 11:24:26;;;;;;;;;;;;;;;0.45;84.63;100022.28;1729521;81;20404;-72
2021/01/22 11:26:56;;;;;;;;;;;;;;;0.43;84.59;100017.61;1723729;81;20766;-72
2021/01/22 11:29:24;;;;;;;;;;;;;;;0.45;84.54;100006.69;1721824;81;20227;-74
2021/01/22 11:31:51;;;;;;;;;;;;;;;0.45;84.41;100002.79;1721041;82;24362;-74
2021/01/22 11:34:19;;;;;;;;;;;;;;;0.49;84.40;100004.82;1712873;81;20407;-71
2021/01/22 11:36:47;;;;;;;;;;;;;;;0.57;84.42;99994.91;1716029;82;20221;-72
2021/01/22 11:39:14;;;;;;;;;;;;;;;0.62;84.29;99993.41;1707998;83;20484;-72
2021/01/22 11:41:42;;;;;;;;;;;;;;;0.68;84.18;100000.95;1731202;81;20273;-72
2021/01/22 11:44:09;;;;;;;;;;;;;;;0.69;84.07;100003.94;1730736;81;21942;-71
2021/01/22 11:46:40;;;;;;;;;;;;;;;0.72;84.03;100001.19;1728881;82;20286;-72
2021/01/22 11:49:08;;;;;;;;;;;;;;;0.74;83.92;100007.16;1731644;80;20224;-73
2021/01/22 11:51:37;;;;;;;;;;;;;;;0.74;83.84;99995.00;1736907;81;20502;-72
2021/01/22 11:54:05;;;;;;;;;;;;;;;0.70;83.75;99996.52;1734991;82;20218;-69
2021/01/22 11:56:33;;;;;;;;;;;;;;;0.68;83.67;99997.05;1747868;80;22142;-69
2021/01/22 11:59:00;;;;;;;;;;;;;;;0.63;83.58;99989.45;1745989;80;20222;-70
2021/01/22 12:01:29;;;;;;;;;;;;;;;0.63;83.59;99996.40;1736101;80;20226;-69
2021/01/22 12:03:56;;;;;;;;;;;;;;;0.70;83.63;99988.27;1735257;81;20538;-70
2021/01/22 12:06:23;;;;;;;;;;;;;;;0.84;83.64;99984.57;1733375;80;20404;-70
2021/01/22 12:08:51;;;;;;;;;;;;;;;0.98;83.60;99975.31;1738010;80;22036;-69
2021/01/22 12:11:19;;;;;;;;;;;;;;;1.07;83.39;99979.63;1738094;80;20401;-69
2021/01/22 12:13:47;;;;;;;;;;;;;;;1.14;83.27;99977.56;1737710;80;20225;-68
2021/01/22 12:16:15;;;;;;;;;;;;;;;1.20;83.15;99985.09;1744869;80;20719;-70
2021/01/22 12:18:45;;;;;;;;;;;;;;;1.24;82.97;99987.08;1736010;80;20226;-71
2021/01/22 12:21:12;;;;;;;;;;;;;;;1.30;82.80;99982.90;1741803;80;21910;-70
2021/01/22 12:23:43;;;;;;;;;;;;;;;1.34;82.66;99974.02;1741254;80;20462;-70
2021/01/22 12:26:11;;;;;;;;;;;;;;;1.35;82.42;99984.80;1745650;80;20279;-71
2021/01/22 12:28:39;;;;;;;;;;;;;;;1.30;82.17;99983.73;1719930;82;20525;-71
2021/01/22 12:31:07;;;;;;;;;;;;;;;1.22;81.97;99985.02;1747639;82;20726;-70
2021/01/22 12:33:35;;;;;;;;;;;;;;;1.11;81.88;99992.86;1747679;82;24343;-70
2021/01/22 12:36:04;;;;;;;;;;;;;;;1.07;81.86;99993.09;1746416;81;20277;-70
2021/01/22 12:38:32;;;;;;;;;;;;;;;1.02;81.79;99993.28;1747526;82;20301;-72
2021/01/22 12:41:01;;;;;;;;;;;;;;;0.97;81.76;99995.27;1747828;81;21488;-71
2021/01/22 12:43:29;;;;;;;;;;;;;;;0.93;81.79;99993.71;1747996;82;20239;-71
2021/01/22 12:45:56;;;;;;;;;;;;;;;0.91;81.78;99992.95;1753783;81;22075;-69
2021/01/22 12:48:24;;;;;;;;;;;;;;;0.90;81.81;99986.06;1765478;81;20391;-71
2021/01/22 12:50:52;;;;;;;;;;;;;;;0.90;81.81;99987.36;1765547;81;20224;-71
2021/01/22 12:53:19;;;;;;;;;;;;;;;0.92;81.83;99988.13;1723341;81;20717;-71
2021/01/22 12:55:46;;;;;;;;;;;;;;;0.92;81.77;99985.53;1745576;82;20735;-70
2021/01/22 12:58:14;;;;;;;;;;;;;;;0.90;81.77;99978.27;1745377;82;22077;-70